createdAt,value
2022-09-07T00:08:44.992Z,3.10
2022-09-07T00:18:51.759Z,3.17
2022-09-07T00:28:57.815Z,3.17
2022-09-07T00:39:03.046Z,3.23
2022-09-07T00:49:18.047Z,3.40
2022-09-07T00:59:27.552Z,3.03
2022-09-07T01:09:29.899Z,3.23
2022-09-07T01:19:49.572Z,3.30
2022-09-07T01:30:12.211Z,4.00
2022-09-07T01:40:19.657Z,3.00
2022-09-07T01:50:48.246Z,2.67
2022-09-07T02:00:55.819Z,3.10
2022-09-07T02:11:08.248Z,3.60
2022-09-07T02:21:13.520Z,2.87
2022-09-07T02:31:16.113Z,2.47
2022-09-07T02:41:38.418Z,2.80
2022-09-07T02:52:11.650Z,2.33
2022-09-07T03:02:44.699Z,2.43
2022-09-07T03:12:49.297Z,2.50
2022-09-07T03:22:52.458Z,2.50
2022-09-07T03:32:57.068Z,2.47
2022-09-07T03:42:59.060Z,2.40
2022-09-07T03:53:05.914Z,2.60
2022-09-07T04:03:08.043Z,1.87
2022-09-07T04:13:13.129Z,2.20
2022-09-07T04:23:18.741Z,2.73
2022-09-07T04:33:20.874Z,2.30
2022-09-07T04:43:26.441Z,2.43
2022-09-07T04:53:28.679Z,2.45
2022-09-07T05:03:32.929Z,2.55
2022-09-07T05:13:37.330Z,2.55
2022-09-07T05:23:42.056Z,3.05
2022-09-07T05:54:37.946Z,2.85
2022-09-07T06:04:42.399Z,3.30
2022-09-07T06:14:46.740Z,2.88
2022-09-07T06:24:48.959Z,3.00
2022-09-07T06:34:53.751Z,3.10
2022-09-07T06:44:55.834Z,3.53
2022-09-07T06:55:00.973Z,3.17
2022-09-07T07:05:09.558Z,3.40
2022-09-07T07:15:16.591Z,2.95
2022-09-07T07:25:19.419Z,3.28
2022-09-07T07:35:27.420Z,2.00
2022-09-07T07:56:01.137Z,1.20
2022-09-07T08:06:09.701Z,1.15
2022-09-07T08:16:17.050Z,1.40
2022-09-07T08:26:21.709Z,1.20
2022-09-07T08:36:28.671Z,1.13
2022-09-07T08:46:51.948Z,0.80
2022-09-07T09:07:51.592Z,2.95
2022-09-07T09:18:04.508Z,1.00
2022-09-07T09:28:12.039Z,1.20
2022-09-07T09:38:33.113Z,1.25
2022-09-07T09:48:42.714Z,0.82
2022-09-07T10:09:20.613Z,0.70
2022-09-07T10:19:33.040Z,0.90
2022-09-07T10:29:38.973Z,1.02
2022-09-07T10:40:22.083Z,0.45
2022-09-07T10:50:32.157Z,0.47
2022-09-07T11:00:43.183Z,0.98
2022-09-07T11:11:17.842Z,0.98
2022-09-07T11:31:52.568Z,0.82
2022-09-07T11:52:39.746Z,0.90
2022-09-07T12:03:02.364Z,0.70
2022-09-07T12:13:35.107Z,0.90
2022-09-07T12:23:48.700Z,0.80
2022-09-07T12:34:31.678Z,0.73
2022-09-07T12:44:40.474Z,0.98
2022-09-07T12:55:26.066Z,1.05
2022-09-07T13:05:54.453Z,0.93
2022-09-07T13:16:06.698Z,0.88
2022-09-07T13:26:49.352Z,0.80
2022-09-07T13:36:55.991Z,1.10
2022-09-07T13:47:10.804Z,1.00
2022-09-07T13:57:47.280Z,1.17
2022-09-07T14:07:52.778Z,1.23
2022-09-07T14:18:16.020Z,0.80
2022-09-07T14:28:33.259Z,1.20
2022-09-07T14:49:05.084Z,1.20
2022-09-07T14:59:37.008Z,1.05
2022-09-07T15:09:42.399Z,1.10
2022-09-07T15:19:44.664Z,0.88
2022-09-07T15:29:49.066Z,1.25
2022-09-07T15:39:52.732Z,1.30
2022-09-07T15:50:03.370Z,1.67
2022-09-07T16:00:07.102Z,1.13
2022-09-07T16:10:14.808Z,1.20
2022-09-07T16:20:17.217Z,1.10
2022-09-07T16:30:19.325Z,1.65
2022-09-07T16:40:25.757Z,1.25
2022-09-07T16:50:33.486Z,1.52
2022-09-07T17:00:42.782Z,2.58
2022-09-07T17:10:46.363Z,1.73
2022-09-07T17:20:58.872Z,1.65
2022-09-07T17:41:48.256Z,2.25
2022-09-07T17:51:50.278Z,1.65
2022-09-07T18:01:54.784Z,2.08
2022-09-07T18:11:56.820Z,1.90
2022-09-07T18:21:58.986Z,2.08
2022-09-07T18:32:08.710Z,6.10
2022-09-07T18:42:13.902Z,2.03
2022-09-07T19:02:43.692Z,2.42
2022-09-07T19:12:48.848Z,2.22
2022-09-07T19:22:51.250Z,2.63
2022-09-07T19:32:53.187Z,2.85
2022-09-07T19:43:00.656Z,2.40
2022-09-07T20:03:48.858Z,2.42
2022-09-07T20:13:59.847Z,2.70
2022-09-07T20:24:04.578Z,2.40
2022-09-07T20:34:06.593Z,2.80
2022-09-07T20:44:19.790Z,3.38
2022-09-07T20:54:49.190Z,2.97
2022-09-07T21:05:01.894Z,3.10
2022-09-07T21:15:05.382Z,2.70
2022-09-07T21:25:12.223Z,2.70
2022-09-07T21:46:16.726Z,2.63
2022-09-07T21:56:22.113Z,2.90
2022-09-07T22:06:28.286Z,3.22
2022-09-07T22:16:32.707Z,2.72
2022-09-07T22:26:39.719Z,2.63
2022-09-07T22:36:45.536Z,3.53
2022-09-07T22:46:50.080Z,3.55
2022-09-07T22:56:52.233Z,3.05
2022-09-07T23:06:54.201Z,3.07
2022-09-07T23:16:56.275Z,2.70
2022-09-07T23:26:58.449Z,2.85
2022-09-07T23:37:00.402Z,2.72
2022-09-07T23:47:04.730Z,3.13
2022-09-07T23:57:06.901Z,2.90
